createdAt,value
2022-10-09T00:01:07.824Z,99497.34
2022-10-09T00:02:09.606Z,99496.69
2022-10-09T00:03:13.015Z,99496.44
2022-10-09T00:04:14.765Z,99494.81
2022-10-09T00:05:16.656Z,99500.13
2022-10-09T00:06:26.911Z,99494.00
2022-10-09T00:07:28.684Z,99492.34
2022-10-09T00:08:30.822Z,99493.19
2022-10-09T00:09:32.587Z,99495.00
2022-10-09T00:10:34.411Z,99496.19
2022-10-09T00:11:36.161Z,99494.53
2022-10-09T00:12:37.884Z,99490.44
2022-10-09T00:13:39.729Z,99494.94
2022-10-09T00:14:41.449Z,99500.41
2022-10-09T00:15:46.358Z,99495.94
2022-10-09T00:16:48.127Z,99490.03
2022-10-09T00:17:50.000Z,99493.69
2022-10-09T00:18:52.272Z,99489.41
2022-10-09T00:19:54.004Z,99494.03
2022-10-09T00:20:55.717Z,99490.41
2022-10-09T00:21:57.412Z,99490.56
2022-10-09T00:22:59.152Z,99491.56
2022-10-09T00:24:04.049Z,99493.22
2022-10-09T00:25:06.737Z,99485.25
2022-10-09T00:26:08.596Z,99486.28
2022-10-09T00:27:10.361Z,99487.28
2022-10-09T00:28:12.101Z,99484.63
2022-10-09T00:29:14.267Z,99482.19
2022-10-09T00:30:16.144Z,99487.66
2022-10-09T00:31:19.364Z,99473.19
2022-10-09T00:32:21.280Z,99481.13
2022-10-09T00:33:23.912Z,99478.81
2022-10-09T00:34:25.652Z,99481.66
2022-10-09T00:35:27.378Z,99482.69
2022-10-09T00:36:29.592Z,99475.75
2022-10-09T00:37:31.319Z,99476.94
2022-10-09T00:38:34.147Z,99473.47
2022-10-09T00:39:35.963Z,99469.34
2022-10-09T00:40:38.677Z,99481.97
2022-10-09T00:41:41.079Z,99475.00
2022-10-09T00:42:45.426Z,99482.31
2022-10-09T00:43:49.472Z,99479.03
2022-10-09T00:45:02.052Z,99472.09
2022-10-09T00:46:04.296Z,99473.47
2022-10-09T00:47:06.082Z,99476.50
2022-10-09T00:48:12.036Z,99476.50
2022-10-09T00:49:32.777Z,99474.41
2022-10-09T00:50:44.432Z,99473.59
2022-10-09T00:51:49.275Z,99474.56
2022-10-09T00:52:58.416Z,99473.75
2022-10-09T00:54:03.601Z,99479.25
2022-10-09T00:55:06.977Z,99476.59
2022-10-09T00:56:08.750Z,99470.69
2022-10-09T00:57:11.770Z,99474.31
2022-10-09T00:58:14.505Z,99476.34
2022-10-09T00:59:17.708Z,99474.72
2022-10-09T01:00:19.882Z,99475.88
2022-10-09T01:01:21.839Z,99472.59
2022-10-09T01:02:23.654Z,99472.59
2022-10-09T01:03:25.380Z,99470.34
2022-10-09T01:04:27.109Z,99472.16
2022-10-09T01:06:00.387Z,99468.50
2022-10-09T01:07:25.056Z,99469.31
2022-10-09T01:08:58.635Z,99466.88
2022-10-09T01:10:21.225Z,99466.03
2022-10-09T01:11:57.770Z,99462.13
2022-10-09T01:13:36.167Z,99463.31
2022-10-09T01:15:04.181Z,99466.13
2022-10-09T01:16:35.847Z,99457.38
2022-10-09T01:17:58.385Z,99457.75
2022-10-09T01:19:31.997Z,99457.13
2022-10-09T01:20:56.939Z,99451.19
2022-10-09T01:22:32.280Z,99454.00
2022-10-09T01:24:07.955Z,99452.56
2022-10-09T01:25:19.702Z,99451.75
2022-10-09T01:26:40.011Z,99451.09
2022-10-09T01:27:42.169Z,99446.19
2022-10-09T01:28:52.957Z,99454.13
2022-10-09T01:30:05.811Z,99444.53
2022-10-09T01:31:10.034Z,99453.66
2022-10-09T01:32:17.410Z,99449.19
2022-10-09T01:33:19.314Z,99438.97
2022-10-09T01:34:23.450Z,99439.81
2022-10-09T01:35:26.887Z,99444.28
2022-10-09T01:36:31.058Z,99444.28
2022-10-09T01:37:35.501Z,99446.09
2022-10-09T01:38:41.223Z,99446.47
2022-10-09T01:39:46.359Z,99442.81
2022-10-09T01:40:49.773Z,99444.16
2022-10-09T01:41:54.694Z,99443.00
2022-10-09T01:42:59.303Z,99442.53
2022-10-09T01:44:00.998Z,99441.09
2022-10-09T01:45:02.873Z,99444.34
2022-10-09T01:46:34.035Z,99444.34
2022-10-09T01:47:37.572Z,99438.63
2022-10-09T01:48:39.972Z,99437.16
2022-10-09T01:50:07.664Z,99435.16
2022-10-09T01:51:09.581Z,99438.19
2022-10-09T01:52:55.777Z,99430.25
2022-10-09T01:54:05.922Z,99427.94
2022-10-09T01:55:53.386Z,99429.97
2022-10-09T01:56:59.730Z,99431.97
2022-10-09T01:58:19.306Z,99424.41
2022-10-09T01:59:22.970Z,99427.88
2022-10-09T02:00:26.400Z,99426.22
2022-10-09T02:01:33.915Z,99429.03
2022-10-09T02:02:37.797Z,99418.81
2022-10-09T02:03:43.139Z,99423.09
2022-10-09T02:04:46.198Z,99415.56
2022-10-09T02:05:52.812Z,99411.72
2022-10-09T02:06:55.388Z,99416.38
2022-10-09T02:07:59.343Z,99418.00
2022-10-09T02:09:06.224Z,99410.25
2022-10-09T02:10:10.112Z,99412.72
2022-10-09T02:11:17.167Z,99407.44
2022-10-09T02:12:21.281Z,99412.09
2022-10-09T02:13:23.910Z,99408.63
2022-10-09T02:14:25.875Z,99403.53
2022-10-09T02:15:42.464Z,99409.63
2022-10-09T02:16:49.444Z,99403.34
2022-10-09T02:17:57.623Z,99402.72
2022-10-09T02:19:04.177Z,99402.72
2022-10-09T02:20:22.698Z,99403.72
2022-10-09T02:21:34.174Z,99407.38
2022-10-09T02:22:36.600Z,99407.84
2022-10-09T02:23:41.384Z,99403.75
2022-10-09T02:24:44.422Z,99399.66
2022-10-09T02:25:46.485Z,99402.47
2022-10-09T02:26:48.704Z,99409.75
2022-10-09T02:27:50.783Z,99408.13
2022-10-09T02:28:53.057Z,99415.41
2022-10-09T02:29:55.596Z,99401.56
2022-10-09T02:31:20.824Z,99403.19
2022-10-09T02:32:23.812Z,99402.38
2022-10-09T02:33:33.773Z,99401.75
2022-10-09T02:34:35.791Z,99406.38
2022-10-09T02:35:39.146Z,99411.22
2022-10-09T02:36:40.988Z,99401.63
2022-10-09T02:37:42.700Z,99405.91
2022-10-09T02:38:44.422Z,99406.09
2022-10-09T02:39:46.221Z,99401.19
2022-10-09T02:40:48.195Z,99402.38
2022-10-09T02:41:49.891Z,99408.47
2022-10-09T02:42:51.877Z,99400.88
2022-10-09T02:43:54.060Z,99400.06
2022-10-09T02:44:55.763Z,99400.25
2022-10-09T02:45:57.450Z,99404.72
2022-10-09T02:46:59.230Z,99394.97
2022-10-09T02:48:00.953Z,99395.34
2022-10-09T02:49:02.828Z,99396.34
2022-10-09T02:50:05.214Z,99400.00
2022-10-09T02:51:07.403Z,99401.44
2022-10-09T02:52:09.224Z,99401.44
2022-10-09T02:53:10.976Z,99399.81
2022-10-09T02:54:12.745Z,99402.25
2022-10-09T02:55:14.547Z,99394.53
2022-10-09T02:56:16.335Z,99396.16
2022-10-09T02:57:18.038Z,99400.44
2022-10-09T02:58:19.725Z,99393.53
2022-10-09T02:59:21.457Z,99399.81
2022-10-09T03:00:23.200Z,99395.53
2022-10-09T03:01:25.077Z,99404.28
2022-10-09T03:02:26.917Z,99391.25
2022-10-09T03:03:28.902Z,99391.06
2022-10-09T03:04:30.625Z,99389.41
2022-10-09T03:05:32.357Z,99386.13
2022-10-09T03:06:34.208Z,99395.03
2022-10-09T03:07:35.946Z,99396.03
2022-10-09T03:08:41.905Z,99394.22
2022-10-09T03:09:43.613Z,99387.28
2022-10-09T03:10:45.347Z,99384.66
2022-10-09T03:11:47.131Z,99384.66
2022-10-09T03:12:49.142Z,99387.47
2022-10-09T03:13:51.364Z,99381.56
2022-10-09T03:14:53.076Z,99383.38
2022-10-09T03:15:55.033Z,99387.66
2022-10-09T03:16:57.536Z,99386.22
2022-10-09T03:17:59.233Z,99389.84
2022-10-09T03:19:01.023Z,99392.50
2022-10-09T03:20:03.089Z,99389.03
2022-10-09T03:21:10.934Z,99389.84
2022-10-09T03:22:12.655Z,99396.09
2022-10-09T03:23:14.420Z,99393.84
2022-10-09T03:24:16.113Z,99387.53
2022-10-09T03:25:17.854Z,99399.94
2022-10-09T03:26:23.602Z,99397.47
2022-10-09T03:27:25.413Z,99398.47
2022-10-09T03:28:28.248Z,99401.94
2022-10-09T03:29:30.004Z,99403.94
2022-10-09T03:30:31.745Z,99401.47
2022-10-09T03:31:51.153Z,99402.31
2022-10-09T03:32:53.913Z,99404.13
2022-10-09T03:33:55.666Z,99401.81
2022-10-09T03:34:57.369Z,99402.81
2022-10-09T03:35:59.308Z,99394.44
2022-10-09T03:37:01.024Z,99409.28
2022-10-09T03:38:02.715Z,99401.53
2022-10-09T03:39:04.435Z,99406.81
2022-10-09T03:40:07.011Z,99405.00
2022-10-09T03:41:08.854Z,99404.19
2022-10-09T03:42:10.555Z,99396.25
2022-10-09T03:43:12.436Z,99407.00
2022-10-09T03:44:14.130Z,99395.63
2022-10-09T03:45:15.997Z,99403.53
2022-10-09T03:46:17.901Z,99400.72
2022-10-09T03:47:19.693Z,99403.72
2022-10-09T03:48:21.493Z,99405.38
2022-10-09T03:49:23.201Z,99409.00
2022-10-09T03:50:25.154Z,99407.38
2022-10-09T03:51:27.355Z,99399.59
2022-10-09T03:52:29.065Z,99403.59
2022-10-09T03:53:30.960Z,99402.59
2022-10-09T03:54:32.946Z,99397.50
2022-10-09T03:55:34.961Z,99397.69
2022-10-09T03:56:36.694Z,99399.50
2022-10-09T03:57:38.590Z,99394.41
2022-10-09T03:58:40.361Z,99398.88
2022-10-09T03:59:42.113Z,99394.09
2022-10-09T04:00:46.049Z,99396.72
2022-10-09T04:01:47.790Z,99398.56
2022-10-09T04:02:49.714Z,99396.28
2022-10-09T04:03:51.697Z,99396.28
2022-10-09T04:04:53.459Z,99397.28
2022-10-09T04:05:55.213Z,99399.09
2022-10-09T04:06:56.938Z,99394.63
2022-10-09T04:07:58.698Z,99401.91
2022-10-09T04:09:01.220Z,99403.72
2022-10-09T04:10:05.246Z,99403.72
2022-10-09T04:11:07.068Z,99401.09
2022-10-09T04:12:08.892Z,99400.44
2022-10-09T04:13:10.713Z,99391.69
2022-10-09T04:14:12.911Z,99401.41
2022-10-09T04:15:14.679Z,99400.59
2022-10-09T04:16:16.455Z,99403.25
2022-10-09T04:17:18.200Z,99403.41
2022-10-09T04:18:20.786Z,99400.78
2022-10-09T04:19:22.485Z,99396.50
2022-10-09T04:20:24.342Z,99401.59
2022-10-09T04:21:26.155Z,99400.97
2022-10-09T04:22:28.290Z,99403.78
2022-10-09T04:23:30.079Z,99401.97
2022-10-09T04:24:31.809Z,99406.25
2022-10-09T04:25:33.513Z,99411.53
2022-10-09T04:26:36.379Z,99398.50
2022-10-09T04:27:38.223Z,99403.59
2022-10-09T04:28:40.301Z,99402.97
2022-10-09T04:29:42.250Z,99389.75
2022-10-09T04:30:43.952Z,99393.72
2022-10-09T04:31:45.928Z,99400.00
2022-10-09T04:32:48.503Z,99397.19
2022-10-09T04:33:50.468Z,99393.72
2022-10-09T04:34:52.191Z,99396.38
2022-10-09T04:35:56.870Z,99391.91
2022-10-09T04:36:58.589Z,99393.91
2022-10-09T04:38:00.288Z,99391.28
2022-10-09T04:39:02.073Z,99402.00
2022-10-09T04:40:04.649Z,99389.00
2022-10-09T04:41:07.571Z,99394.09
2022-10-09T04:42:09.452Z,99396.09
2022-10-09T04:43:11.220Z,99393.44
2022-10-09T04:44:12.981Z,99397.09
2022-10-09T04:45:14.796Z,99404.19
2022-10-09T04:46:16.651Z,99393.00
2022-10-09T04:47:18.548Z,99395.63
2022-10-09T04:48:21.131Z,99396.56
2022-10-09T04:49:22.932Z,99395.75
2022-10-09T04:50:24.733Z,99393.28
2022-10-09T04:51:26.441Z,99397.09
2022-10-09T04:52:28.360Z,99396.09
2022-10-09T04:53:30.076Z,99399.56
2022-10-09T04:54:31.866Z,99391.81
2022-10-09T04:55:37.984Z,99392.81
2022-10-09T04:56:39.908Z,99395.47
2022-10-09T04:57:41.691Z,99394.63
2022-10-09T04:58:44.296Z,99395.47
2022-10-09T04:59:46.204Z,99389.72
2022-10-09T05:00:48.148Z,99389.03
2022-10-09T05:01:49.951Z,99392.53
2022-10-09T05:02:52.081Z,99388.41
2022-10-09T05:03:54.646Z,99395.00
2022-10-09T05:04:57.260Z,99388.41
2022-10-09T05:06:04.294Z,99396.13
2022-10-09T05:07:06.019Z,99394.69
2022-10-09T05:08:07.861Z,99393.84
2022-10-09T05:09:09.625Z,99394.03
2022-10-09T05:10:11.428Z,99399.31
2022-10-09T05:11:17.559Z,99396.50
2022-10-09T05:12:19.259Z,99394.03
2022-10-09T05:13:20.961Z,99397.66
2022-10-09T05:14:22.748Z,99395.84
2022-10-09T05:15:24.507Z,99388.75
2022-10-09T05:16:29.212Z,99392.75
2022-10-09T05:17:31.043Z,99391.09
2022-10-09T05:18:34.344Z,99391.25
2022-10-09T05:19:36.138Z,99388.63
2022-10-09T05:20:41.577Z,99397.34
2022-10-09T05:21:43.444Z,99399.34
2022-10-09T05:22:46.301Z,99392.44
2022-10-09T05:23:49.259Z,99391.63
2022-10-09T05:24:50.983Z,99408.44
2022-10-09T05:26:02.791Z,99404.78
2022-10-09T05:27:04.644Z,99404.78
2022-10-09T05:28:06.430Z,99402.34
2022-10-09T05:29:08.310Z,99400.53
2022-10-09T05:30:10.955Z,99402.34
2022-10-09T05:31:38.898Z,99401.69
2022-10-09T05:32:40.706Z,99403.50
2022-10-09T05:33:42.412Z,99404.50
2022-10-09T05:34:44.109Z,99404.50
2022-10-09T05:35:59.047Z,99403.50
2022-10-09T05:37:00.919Z,99400.38
2022-10-09T05:38:02.643Z,99396.91
2022-10-09T05:39:04.528Z,99404.81
2022-10-09T05:40:07.256Z,99403.00
2022-10-09T05:41:14.233Z,99401.06
2022-10-09T05:42:15.949Z,99403.84
2022-10-09T05:43:18.202Z,99398.56
2022-10-09T05:44:19.956Z,99402.19
2022-10-09T05:45:22.430Z,99400.56
2022-10-09T05:46:25.398Z,99391.66
2022-10-09T05:47:27.108Z,99391.81
2022-10-09T05:48:28.848Z,99398.91
2022-10-09T05:49:30.552Z,99399.91
2022-10-09T05:50:32.263Z,99396.44
2022-10-09T05:51:37.898Z,99393.81
2022-10-09T05:52:39.999Z,99395.63
2022-10-09T05:53:43.953Z,99392.00
2022-10-09T05:54:45.748Z,99394.00
2022-10-09T05:55:47.457Z,99395.97
2022-10-09T05:56:49.190Z,99396.63
2022-10-09T05:57:53.300Z,99392.16
2022-10-09T05:59:01.962Z,99391.34
2022-10-09T06:00:04.907Z,99399.63
2022-10-09T06:01:08.793Z,99392.84
2022-10-09T06:02:10.636Z,99392.03
2022-10-09T06:03:12.441Z,99390.06
2022-10-09T06:04:23.330Z,99396.97
2022-10-09T06:05:25.052Z,99391.03
2022-10-09T06:06:31.211Z,99398.78
2022-10-09T06:07:32.923Z,99390.88
2022-10-09T06:08:38.941Z,99388.25
2022-10-09T06:09:40.678Z,99388.38
2022-10-09T06:10:42.370Z,99394.34
2022-10-09T06:11:44.599Z,99392.03
2022-10-09T06:12:46.529Z,99389.38
2022-10-09T06:13:49.650Z,99390.06
2022-10-09T06:14:51.840Z,99395.47
2022-10-09T06:15:54.703Z,99389.06
2022-10-09T06:16:59.561Z,99397.78
2022-10-09T06:18:01.383Z,99395.00
2022-10-09T06:19:06.497Z,99390.72
2022-10-09T06:20:08.812Z,99386.44
2022-10-09T06:21:10.527Z,99395.81
2022-10-09T06:22:12.256Z,99393.16
2022-10-09T06:23:13.987Z,99394.00
2022-10-09T06:24:28.772Z,99396.28
2022-10-09T06:25:30.972Z,99391.81
2022-10-09T06:26:33.359Z,99392.63
2022-10-09T06:27:35.086Z,99394.63
2022-10-09T06:28:37.292Z,99393.47
2022-10-09T06:29:39.115Z,99390.00
2022-10-09T06:30:40.843Z,99399.38
2022-10-09T06:31:42.606Z,99392.13
2022-10-09T06:32:44.330Z,99396.59
2022-10-09T06:33:48.904Z,99398.06
2022-10-09T06:34:50.607Z,99390.97
2022-10-09T06:35:52.312Z,99399.69
2022-10-09T06:36:54.039Z,99389.78
2022-10-09T06:37:55.729Z,99393.44
2022-10-09T06:39:04.652Z,99391.44
2022-10-09T06:40:06.956Z,99395.88
2022-10-09T06:41:18.302Z,99395.72
2022-10-09T06:42:20.049Z,99394.72
2022-10-09T06:43:22.008Z,99386.97
2022-10-09T06:44:24.088Z,99393.91
2022-10-09T06:45:25.997Z,99391.25
2022-10-09T06:46:41.178Z,99396.03
2022-10-09T06:47:42.872Z,99389.94
2022-10-09T06:48:44.604Z,99395.03
2022-10-09T06:49:46.350Z,99389.59
2022-10-09T06:50:48.065Z,99395.69
2022-10-09T06:51:49.775Z,99399.78
2022-10-09T06:52:51.834Z,99397.97
2022-10-09T06:53:56.383Z,99398.28
2022-10-09T06:54:58.103Z,99406.00
2022-10-09T06:55:59.842Z,99401.56
2022-10-09T06:57:01.608Z,99401.03
2022-10-09T06:58:03.484Z,99403.53
2022-10-09T06:59:07.543Z,99412.91
2022-10-09T07:00:09.986Z,99404.19
2022-10-09T07:01:24.190Z,99410.91
2022-10-09T07:02:25.943Z,99413.19
2022-10-09T07:03:27.693Z,99411.38
2022-10-09T07:04:29.582Z,99412.88
2022-10-09T07:05:31.339Z,99412.88
2022-10-09T07:06:38.067Z,99412.69
2022-10-09T07:07:41.216Z,99411.88
2022-10-09T07:08:47.555Z,99403.78
2022-10-09T07:09:49.380Z,99407.25
2022-10-09T07:10:51.090Z,99413.34
2022-10-09T07:11:52.804Z,99409.34
2022-10-09T07:12:54.519Z,99410.34
2022-10-09T07:14:00.302Z,99413.47
2022-10-09T07:15:03.118Z,99412.63
2022-10-09T07:16:05.638Z,99416.94
2022-10-09T07:17:07.447Z,99410.66
2022-10-09T07:18:09.154Z,99408.66
2022-10-09T07:19:12.538Z,99412.75
2022-10-09T07:20:14.434Z,99413.56
2022-10-09T07:21:16.773Z,99413.22
2022-10-09T07:22:18.525Z,99411.38
2022-10-09T07:23:20.281Z,99416.53
2022-10-09T07:24:24.487Z,99413.69
2022-10-09T07:25:26.245Z,99410.69
2022-10-09T07:26:30.669Z,99412.97
2022-10-09T07:27:32.751Z,99419.06
2022-10-09T07:28:34.603Z,99419.75
2022-10-09T07:29:36.569Z,99417.75
2022-10-09T07:30:38.900Z,99412.28
2022-10-09T07:31:40.732Z,99417.19
2022-10-09T07:32:42.466Z,99414.88
2022-10-09T07:33:48.527Z,99415.50
2022-10-09T07:34:50.314Z,99410.88
2022-10-09T07:36:00.806Z,99415.78
2022-10-09T07:37:02.517Z,99411.31
2022-10-09T07:38:04.734Z,99412.97
2022-10-09T07:39:07.394Z,99414.25
2022-10-09T07:40:09.703Z,99416.72
2022-10-09T07:41:13.002Z,99403.97
2022-10-09T07:42:26.174Z,99409.72
2022-10-09T07:43:28.496Z,99406.09
2022-10-09T07:44:30.258Z,99410.19
2022-10-09T07:45:31.986Z,99406.34
2022-10-09T07:46:34.394Z,99404.16
2022-10-09T07:47:36.207Z,99403.84
2022-10-09T07:48:38.535Z,99405.28
2022-10-09T07:49:40.256Z,99403.91
2022-10-09T07:50:42.031Z,99401.94
2022-10-09T07:51:43.744Z,99407.84
2022-10-09T07:52:45.468Z,99403.03
2022-10-09T07:53:48.096Z,99407.94
2022-10-09T07:54:49.808Z,99400.66
2022-10-09T07:55:51.565Z,99404.75
2022-10-09T07:56:53.384Z,99399.94
2022-10-09T07:57:55.167Z,99402.22
2022-10-09T07:59:04.132Z,99405.34
2022-10-09T08:00:06.979Z,99401.69
2022-10-09T08:01:09.999Z,99403.34
2022-10-09T08:02:11.794Z,99406.63
2022-10-09T08:03:13.621Z,99406.25
2022-10-09T08:04:15.383Z,99404.41
2022-10-09T08:05:17.187Z,99404.25
2022-10-09T08:06:19.903Z,99394.31
2022-10-09T08:07:21.618Z,99399.41
2022-10-09T08:08:23.351Z,99394.56
2022-10-09T08:09:25.181Z,99400.50
2022-10-09T08:10:30.889Z,99393.22
2022-10-09T08:11:33.666Z,99402.59
2022-10-09T08:12:35.382Z,99401.22
2022-10-09T08:13:38.047Z,99398.88
2022-10-09T08:14:39.763Z,99399.31
2022-10-09T08:15:43.392Z,99396.28
2022-10-09T08:16:45.199Z,99390.47
2022-10-09T08:17:46.994Z,99389.06
2022-10-09T08:18:49.416Z,99397.44
2022-10-09T08:19:51.204Z,99392.44
2022-10-09T08:21:06.270Z,99390.84
2022-10-09T08:22:08.130Z,99395.59
2022-10-09T08:23:09.836Z,99397.88
2022-10-09T08:24:12.353Z,99387.72
2022-10-09T08:25:14.164Z,99386.16
2022-10-09T08:26:22.005Z,99381.94
2022-10-09T08:27:23.893Z,99381.78
2022-10-09T08:28:25.950Z,99379.38
2022-10-09T08:29:27.767Z,99384.94
2022-10-09T08:30:29.697Z,99385.97
2022-10-09T08:31:32.260Z,99382.78
2022-10-09T08:32:34.248Z,99381.41
2022-10-09T08:33:35.964Z,99382.66
2022-10-09T08:34:37.733Z,99384.56
2022-10-09T08:35:39.665Z,99383.16
2022-10-09T08:36:41.446Z,99386.09
2022-10-09T08:37:43.169Z,99378.56
2022-10-09T08:38:47.657Z,99382.72
2022-10-09T08:39:50.018Z,99376.81
2022-10-09T08:41:06.265Z,99379.34
2022-10-09T08:42:57.192Z,99376.34
2022-10-09T08:44:07.177Z,99380.31
2022-10-09T08:45:16.949Z,99380.53
2022-10-09T08:47:18.938Z,99378.16
2022-10-09T08:48:25.938Z,99366.97
2022-10-09T08:49:42.630Z,99373.13
2022-10-09T08:50:51.495Z,99375.22
2022-10-09T08:52:00.167Z,99368.50
2022-10-09T08:53:13.148Z,99372.81
2022-10-09T08:54:37.749Z,99368.38
2022-10-09T08:56:00.977Z,99368.38
2022-10-09T08:57:12.282Z,99363.13
2022-10-09T08:58:21.209Z,99371.09
2022-10-09T08:59:23.031Z,99364.38
2022-10-09T09:00:34.411Z,99366.22
2022-10-09T09:01:50.130Z,99368.91
2022-10-09T09:03:07.016Z,99372.78
2022-10-09T09:04:27.303Z,99366.28
2022-10-09T09:06:05.540Z,99368.97
2022-10-09T09:07:39.096Z,99362.00
2022-10-09T09:09:19.920Z,99353.03
2022-10-09T09:10:41.367Z,99354.13
2022-10-09T09:11:48.585Z,99355.34
2022-10-09T09:13:04.067Z,99351.03
2022-10-09T09:14:30.027Z,99350.03
2022-10-09T09:16:09.362Z,99352.69
2022-10-09T09:17:20.579Z,99351.03
2022-10-09T09:18:58.804Z,99346.97
2022-10-09T09:20:26.983Z,99344.28
2022-10-09T09:21:41.378Z,99338.38
2022-10-09T09:22:49.467Z,99336.91
2022-10-09T09:23:51.744Z,99339.97
2022-10-09T09:24:57.163Z,99334.44
2022-10-09T09:25:59.612Z,99334.03
2022-10-09T09:27:20.611Z,99340.16
2022-10-09T09:28:25.538Z,99331.34
2022-10-09T09:29:29.015Z,99337.06
2022-10-09T09:30:45.780Z,99323.38
2022-10-09T09:31:53.889Z,99326.81
2022-10-09T09:33:46.181Z,99325.97
2022-10-09T09:34:48.114Z,99323.03
2022-10-09T09:36:09.602Z,99322.38
2022-10-09T09:37:12.282Z,99324.56
2022-10-09T09:38:15.213Z,99324.13
2022-10-09T09:40:43.211Z,99318.47
2022-10-09T09:41:47.710Z,99323.84
2022-10-09T09:42:51.316Z,99317.19
2022-10-09T09:43:53.393Z,99318.41
2022-10-09T09:45:00.178Z,99320.22
2022-10-09T09:46:02.313Z,99313.22
2022-10-09T09:47:04.305Z,99312.13
2022-10-09T09:48:20.611Z,99305.56
2022-10-09T09:49:29.316Z,99310.44
2022-10-09T09:50:50.621Z,99303.53
2022-10-09T09:52:01.027Z,99303.78
2022-10-09T09:53:33.795Z,99296.63
2022-10-09T09:54:38.835Z,99295.53
2022-10-09T09:55:40.704Z,99297.16
2022-10-09T09:58:16.326Z,99290.25
2022-10-09T09:59:35.570Z,99294.31
2022-10-09T10:00:37.363Z,99290.94
2022-10-09T10:01:39.162Z,99283.41
2022-10-09T10:02:40.905Z,99283.34
2022-10-09T10:03:50.698Z,99284.59
2022-10-09T10:05:06.200Z,99271.72
2022-10-09T10:06:21.789Z,99280.84
2022-10-09T10:07:35.410Z,99272.66
2022-10-09T10:08:37.186Z,99272.41
2022-10-09T10:09:38.980Z,99275.97
2022-10-09T10:10:47.686Z,99269.72
2022-10-09T10:11:59.250Z,99266.31
2022-10-09T10:13:01.417Z,99256.09
2022-10-09T10:14:09.437Z,99257.19
2022-10-09T10:15:21.283Z,99259.88
2022-10-09T10:16:32.514Z,99260.09
2022-10-09T10:17:37.185Z,99257.06
2022-10-09T10:18:42.801Z,99250.44
2022-10-09T10:19:50.741Z,99249.28
2022-10-09T10:21:04.028Z,99246.69
2022-10-09T10:22:23.307Z,99250.28
2022-10-09T10:23:55.895Z,99254.88
2022-10-09T10:24:59.618Z,99245.09
2022-10-09T10:26:12.470Z,99249.06
2022-10-09T10:27:40.823Z,99246.56
2022-10-09T10:28:55.890Z,99237.97
2022-10-09T10:30:05.850Z,99232.66
2022-10-09T10:31:24.492Z,99233.81
2022-10-09T10:32:49.850Z,99234.75
2022-10-09T10:33:57.177Z,99226.00
2022-10-09T10:35:01.822Z,99226.25
2022-10-09T10:36:04.871Z,99230.25
2022-10-09T10:37:16.112Z,99225.72
2022-10-09T10:38:49.134Z,99220.94
2022-10-09T10:40:20.040Z,99208.47
2022-10-09T10:41:36.246Z,99214.63
2022-10-09T10:42:57.497Z,99208.53
2022-10-09T10:44:22.799Z,99203.16
2022-10-09T10:45:39.562Z,99208.66
2022-10-09T10:47:02.320Z,99209.28
2022-10-09T10:48:09.400Z,99212.75
2022-10-09T10:49:22.483Z,99212.16
2022-10-09T10:50:39.034Z,99211.03
2022-10-09T10:52:04.013Z,99204.13
2022-10-09T10:54:04.618Z,99199.78
2022-10-09T10:55:26.748Z,99204.25
2022-10-09T10:56:32.973Z,99196.63
2022-10-09T10:58:27.494Z,99193.28
2022-10-09T10:59:47.424Z,99191.16
2022-10-09T11:01:29.613Z,99198.41
2022-10-09T11:03:00.873Z,99186.78
2022-10-09T11:04:39.047Z,99185.06
2022-10-09T11:05:57.577Z,99183.94
2022-10-09T11:07:29.176Z,99169.44
2022-10-09T11:09:05.800Z,99186.72
2022-10-09T11:10:48.413Z,99185.47
2022-10-09T11:12:02.312Z,99180.44
2022-10-09T11:13:06.617Z,99186.59
2022-10-09T11:14:39.045Z,99179.72
2022-10-09T11:15:56.133Z,99177.66
2022-10-09T11:18:00.578Z,99173.28
2022-10-09T11:19:19.542Z,99182.19
2022-10-09T11:20:53.246Z,99175.38
2022-10-09T11:22:19.784Z,99179.28
2022-10-09T11:24:12.181Z,99176.09
2022-10-09T11:25:35.944Z,99170.59
2022-10-09T11:27:17.761Z,99170.72
2022-10-09T11:28:28.413Z,99172.22
2022-10-09T11:29:43.610Z,99162.13
2022-10-09T11:31:19.607Z,99159.06
2022-10-09T11:33:11.214Z,99155.19
2022-10-09T11:34:27.024Z,99163.25
2022-10-09T11:35:44.353Z,99153.81
2022-10-09T11:36:46.474Z,99155.28
2022-10-09T11:38:02.332Z,99156.91
2022-10-09T11:39:13.810Z,99153.03
2022-10-09T11:40:24.255Z,99143.56
2022-10-09T11:41:28.859Z,99148.72
2022-10-09T11:42:31.403Z,99150.97
2022-10-09T11:43:59.220Z,99151.41
2022-10-09T11:45:27.159Z,99141.91
2022-10-09T11:47:07.673Z,99140.56
2022-10-09T11:48:50.407Z,99141.56
2022-10-09T11:49:58.284Z,99136.28
2022-10-09T11:51:35.309Z,99131.81
2022-10-09T11:52:57.845Z,99126.13
2022-10-09T11:54:01.782Z,99117.63
2022-10-09T11:55:27.546Z,99124.06
2022-10-09T11:56:32.117Z,99125.00
2022-10-09T11:57:35.357Z,99114.66
2022-10-09T11:58:37.204Z,99118.09
2022-10-09T11:59:42.478Z,99119.94
2022-10-09T12:00:47.054Z,99107.72
2022-10-09T12:01:49.019Z,99113.88
2022-10-09T12:03:00.828Z,99117.09
2022-10-09T12:04:13.235Z,99113.81
2022-10-09T12:05:34.539Z,99104.56
2022-10-09T12:07:09.308Z,99097.03
2022-10-09T12:08:19.777Z,99100.38
2022-10-09T12:09:29.921Z,99100.25
2022-10-09T12:10:34.692Z,99095.25
2022-10-09T12:11:36.513Z,99100.25
2022-10-09T12:12:38.783Z,99093.94
2022-10-09T12:13:47.235Z,99091.91
2022-10-09T12:14:52.765Z,99092.63
2022-10-09T12:15:58.894Z,99097.63
2022-10-09T12:17:01.755Z,99086.31
2022-10-09T12:18:24.876Z,99088.94
2022-10-09T12:19:40.838Z,99082.28
2022-10-09T12:20:49.061Z,99086.19
2022-10-09T12:21:56.618Z,99076.06
2022-10-09T12:23:25.177Z,99080.44
2022-10-09T12:24:30.566Z,99070.56
2022-10-09T12:25:43.783Z,99067.72
2022-10-09T12:26:48.903Z,99071.31
2022-10-09T12:27:55.648Z,99065.19
2022-10-09T12:29:04.891Z,99058.50
2022-10-09T12:30:13.494Z,99052.34
2022-10-09T12:31:36.743Z,99050.03
2022-10-09T12:33:15.770Z,99050.69
2022-10-09T12:34:34.549Z,99058.69
2022-10-09T12:35:43.000Z,99051.72
2022-10-09T12:36:44.760Z,99049.06
2022-10-09T12:37:46.527Z,99050.75
2022-10-09T12:38:48.567Z,99048.66
2022-10-09T12:39:50.398Z,99051.41
2022-10-09T12:40:55.838Z,99046.06
2022-10-09T12:41:58.381Z,99039.09
2022-10-09T12:43:07.914Z,99039.19
2022-10-09T12:44:30.352Z,99041.94
2022-10-09T12:45:32.333Z,99035.00
2022-10-09T12:46:39.107Z,99033.97
2022-10-09T12:47:40.992Z,99042.13
2022-10-09T12:48:45.697Z,99037.56
2022-10-09T12:50:12.340Z,99038.75
2022-10-09T12:51:24.845Z,99034.19
2022-10-09T12:52:27.142Z,99026.94
2022-10-09T12:53:29.903Z,99030.22
2022-10-09T12:54:31.756Z,99024.88
2022-10-09T12:55:40.666Z,99023.53
2022-10-09T12:56:42.693Z,99021.97
2022-10-09T12:57:44.826Z,99024.19
2022-10-09T12:58:46.808Z,99020.44
2022-10-09T12:59:49.724Z,99022.91
2022-10-09T13:00:56.638Z,99018.34
2022-10-09T13:02:00.227Z,99019.22
2022-10-09T13:03:02.416Z,99010.03
2022-10-09T13:04:08.249Z,99014.94
2022-10-09T13:05:09.974Z,99010.66
2022-10-09T13:06:20.430Z,99002.53
2022-10-09T13:07:26.300Z,99003.94
2022-10-09T13:08:39.821Z,99001.50
2022-10-09T13:09:41.684Z,99009.41
2022-10-09T13:10:43.495Z,99000.78
2022-10-09T13:11:52.945Z,99014.56
2022-10-09T13:12:58.804Z,98999.72
2022-10-09T13:14:01.886Z,98994.38
2022-10-09T13:15:30.072Z,99003.03
2022-10-09T13:16:44.205Z,98999.81
2022-10-09T13:17:46.123Z,98993.66